Time;durP1;ratioP1;P1;durP2;ratioP2;P2;SDS_P1;SDS_P2;PMS_P1;PMS_P2;Temp;Humidity;BMP_temperature;BMP_pressure;BME280_temperature;BME280_humidity;BME280_pressure;Samples;Min_cycle;Max_cycle;Signal;HPM_P1;HPM_P2
2022/03/10 00:00:20;;;;;;;40.15;19.30;;;1.80;63.90;;;0.28;54.78;98045.13;5010671;28;20407;-75
2022/03/10 00:02:46;;;;;;;37.90;18.92;;;1.70;63.60;;;0.35;54.78;98043.47;5011274;28;20416;-75
2022/03/10 00:05:15;;;;;;;41.90;21.27;;;1.70;63.90;;;0.39;55.00;98047.34;5011183;28;20405;-75
2022/03/10 00:07:42;;;;;;;40.35;20.83;;;1.70;64.30;;;0.37;54.63;98049.31;5011182;28;20431;-74
2022/03/10 00:10:09;;;;;;;44.22;20.98;;;1.70;64.50;;;0.36;55.25;98054.69;5010768;28;20409;-75
2022/03/10 00:12:36;;;;;;;44.40;22.23;;;1.60;65.00;;;0.30;55.33;98056.16;5011075;28;20755;-75
2022/03/10 00:15:04;;;;;;;43.72;22.30;;;1.50;65.20;;;0.27;55.38;98059.13;5010917;28;20407;-75
2022/03/10 00:17:30;;;;;;;42.25;21.40;;;1.60;65.30;;;0.25;55.62;98063.69;5010972;28;20439;-75
2022/03/10 00:19:56;;;;;;;46.20;21.70;;;1.60;65.30;;;0.26;55.36;98064.50;5010843;28;20405;-75
2022/03/10 00:22:22;;;;;;;45.40;21.52;;;1.60;65.10;;;0.22;55.02;98058.84;5010607;28;20906;-75
2022/03/10 00:24:49;;;;;;;42.03;21.10;;;1.60;65.00;;;0.28;55.04;98065.16;5010677;28;20405;-75
2022/03/10 00:27:15;;;;;;;40.97;19.00;;;1.60;64.70;;;0.27;54.89;98060.91;5010839;28;21008;-75
2022/03/10 00:29:41;;;;;;;40.30;20.48;;;1.60;64.70;;;0.19;55.06;98064.38;5010702;28;20483;-75
2022/03/10 00:32:07;;;;;;;44.88;20.83;;;1.60;64.70;;;0.27;55.14;98069.53;5010448;28;20883;-75
2022/03/10 00:34:33;;;;;;;41.17;20.45;;;1.50;65.00;;;0.10;55.37;98072.38;5010603;28;20418;-75
2022/03/10 00:36:59;;;;;;;38.88;19.63;;;1.50;64.90;;;0.12;55.60;98083.44;5009796;28;20556;-75
2022/03/10 00:39:25;;;;;;;45.17;20.90;;;1.40;65.10;;;0.13;55.33;98085.06;5010712;28;20890;-75
2022/03/10 00:41:52;;;;;;;42.28;21.48;;;1.40;65.10;;;0.14;55.96;98084.06;5010299;28;20401;-75
2022/03/10 00:44:18;;;;;;;41.08;21.08;;;1.40;65.70;;;0.10;55.52;98086.19;5010338;28;20755;-75
2022/03/10 00:46:44;;;;;;;40.37;19.93;;;1.40;65.80;;;0.14;55.68;98084.06;5009611;28;20463;-75
2022/03/10 00:49:10;;;;;;;38.22;19.80;;;1.40;65.80;;;0.09;55.39;98081.16;5010296;28;20401;-75
2022/03/10 00:51:37;;;;;;;45.53;20.40;;;1.40;65.50;;;0.10;55.64;98082.78;5009851;28;20809;-75
2022/03/10 00:54:03;;;;;;;37.13;17.92;;;1.40;65.50;;;0.06;55.81;98086.69;5010214;28;20555;-75
2022/03/10 00:56:29;;;;;;;33.72;16.83;;;1.40;65.50;;;-0.04;55.62;98085.09;5010559;28;20488;-75
2022/03/10 00:58:56;;;;;;;35.03;18.13;;;1.40;65.30;;;0.00;55.25;98085.59;5010249;28;20882;-75
2022/03/10 01:01:22;;;;;;;34.15;17.42;;;1.40;65.60;;;-0.02;55.70;98082.34;5009924;28;20404;-75
2022/03/10 01:03:48;;;;;;;31.10;16.52;;;1.30;65.50;;;-0.02;55.83;98090.94;5010122;28;20439;-75
2022/03/10 01:06:14;;;;;;;34.55;17.30;;;1.30;65.40;;;-0.04;55.31;98079.06;5010448;28;20408;-74
2022/03/10 01:08:40;;;;;;;30.30;15.93;;;1.30;65.40;;;-0.01;55.13;98082.16;5010379;28;20499;-75
2022/03/10 01:11:06;;;;;;;34.08;16.45;;;1.40;65.30;;;0.04;55.56;98079.06;5009942;28;20579;-75
2022/03/10 01:13:31;;;;;;;29.60;15.47;;;1.30;65.50;;;-0.05;55.71;98083.47;5010331;28;20467;-75
2022/03/10 01:15:59;;;;;;;30.23;16.58;;;1.30;65.50;;;-0.08;55.59;98075.19;5010279;28;20412;-75
2022/03/10 01:18:25;;;;;;;32.50;15.52;;;1.30;65.70;;;-0.07;55.15;98072.41;5010122;28;20404;-75
2022/03/10 01:20:50;;;;;;;30.25;16.33;;;1.20;65.50;;;-0.08;55.79;98076.00;5009727;28;20413;-75
2022/03/10 01:23:16;;;;;;;34.10;16.90;;;1.20;65.60;;;-0.17;55.58;98068.38;5010208;28;20728;-75
2022/03/10 01:25:42;;;;;;;30.63;16.00;;;1.20;65.80;;;-0.15;56.22;98069.03;5009967;28;20405;-75
2022/03/10 01:28:08;;;;;;;31.40;16.05;;;1.10;66.10;;;-0.21;56.17;98057.47;5010222;28;20432;-75
2022/03/10 01:30:34;;;;;;;35.80;16.27;;;1.20;66.00;;;-0.14;55.83;98065.44;5009725;28;20405;-75
2022/03/10 01:33:02;;;;;;;37.05;17.88;;;1.10;66.10;;;-0.18;56.03;98062.38;5010103;28;20786;-75
2022/03/10 01:35:28;;;;;;;33.15;16.95;;;1.10;66.10;;;-0.32;56.00;98055.25;5010068;28;20402;-75
2022/03/10 01:37:53;;;;;;;35.85;17.85;;;1.10;66.00;;;-0.27;56.25;98055.56;5010002;28;20918;-75
2022/03/10 01:40:20;;;;;;;34.53;16.63;;;1.00;67.10;;;-0.41;56.18;98061.44;5009487;28;20447;-75
2022/03/10 01:42:47;;;;;;;30.80;16.07;;;1.00;66.50;;;-0.45;56.84;98058.34;5009967;28;20427;-75
2022/03/10 01:45:15;;;;;;;31.65;15.52;;;0.90;66.60;;;-0.55;56.52;98057.72;5010006;28;20404;-75
2022/03/10 01:47:42;;;;;;;29.05;15.68;;;0.90;66.50;;;-0.53;56.55;98060.97;5010187;28;20412;-75
2022/03/10 01:50:13;;;;;;;35.80;17.83;;;0.90;67.00;;;-0.54;57.09;98063.75;5012468;28;20479;-75
2022/03/10 01:52:40;;;;;;;37.63;17.65;;;0.90;67.10;;;-0.45;57.01;98067.94;5013934;28;20411;-75
2022/03/10 01:55:08;;;;;;;38.80;18.45;;;0.80;67.50;;;-0.49;57.52;98058.84;5013371;28;20482;-75
2022/03/10 01:57:34;;;;;;;35.42;17.45;;;0.80;68.00;;;-0.55;57.63;98055.13;5013448;28;20412;-75
2022/03/10 02:00:00;;;;;;;39.03;17.87;;;0.70;67.90;;;-0.54;57.40;98048.94;5013094;28;20410;-75
2022/03/10 02:02:26;;;;;;;33.60;17.70;;;0.70;68.30;;;-0.52;57.82;98054.78;5006859;28;20417;-75
2022/03/10 02:04:52;;;;;;;33.45;16.45;;;0.80;68.20;;;-0.64;57.60;98050.09;5013206;28;20476;-75
2022/03/10 02:10:17;;;;;;;30.58;15.55;;;0.80;67.60;;;-0.71;57.63;98052.53;5013022;28;20399;-75
2022/03/10 02:12:45;;;;;;;32.83;16.58;;;0.70;67.80;;;-0.69;57.21;98058.38;5013152;28;20400;-75
2022/03/10 02:17:59;;;;;;;33.88;17.55;;;0.70;67.90;;;-0.68;57.79;98060.00;5013169;28;20400;-75
2022/03/10 02:20:25;;;;;;;34.30;17.70;;;0.70;68.20;;;-0.63;58.12;98052.53;5012646;28;20733;-74
2022/03/10 02:22:52;;;;;;;30.92;15.35;;;0.70;68.50;;;-0.74;58.14;98045.03;5012815;28;20901;-74
2022/03/10 02:25:22;;;;;;;34.17;17.05;;;0.60;68.30;;;-0.74;57.95;98060.63;5012688;28;20405;-75
2022/03/10 02:27:51;;;;;;;29.63;15.57;;;0.60;68.40;;;-0.74;57.64;98059.81;5012846;28;20404;-75
2022/03/10 02:30:18;;;;;;;31.17;16.33;;;0.60;68.30;;;-0.74;57.80;98057.22;5012379;28;20408;-75
2022/03/10 02:32:44;;;;;;;29.98;15.43;;;0.70;68.60;;;-0.83;58.20;98062.44;5013021;28;20458;-75
2022/03/10 02:35:10;;;;;;;34.45;15.70;;;0.60;68.50;;;-0.88;58.38;98058.69;5012671;28;20412;-74
2022/03/10 02:37:36;;;;;;;28.80;15.15;;;0.50;68.70;;;-0.80;58.12;98062.13;5012756;28;20409;-74
2022/03/10 02:40:05;;;;;;;27.05;14.45;;;0.50;68.80;;;-0.88;58.25;98059.50;5012658;28;20409;-74
2022/03/10 02:42:31;;;;;;;28.50;14.77;;;0.50;68.80;;;-0.93;58.35;98058.38;5012446;28;20424;-75
2022/03/10 02:44:57;;;;;;;26.33;13.73;;;0.50;69.00;;;-0.95;58.58;98062.91;5012649;28;20839;-74
2022/03/10 02:47:24;;;;;;;24.67;14.15;;;0.50;69.10;;;-1.00;58.91;98070.41;5012761;28;20442;-74
2022/03/10 02:49:50;;;;;;;29.95;15.13;;;0.50;69.30;;;-0.92;59.25;98068.63;5012466;28;20483;-74
2022/03/10 02:52:16;;;;;;;29.08;15.35;;;0.40;69.90;;;-0.94;58.79;98072.34;5012134;28;20496;-74
2022/03/10 02:54:42;;;;;;;31.43;15.47;;;0.40;69.90;;;-1.00;59.19;98073.81;5012377;28;20431;-74
2022/03/10 02:57:10;;;;;;;29.27;14.80;;;0.30;70.10;;;-1.03;59.15;98074.13;5012490;28;20397;-75
2022/03/10 02:59:36;;;;;;;24.85;13.88;;;0.30;70.00;;;-1.07;59.16;98072.81;5011311;28;20972;-75
2022/03/10 03:02:02;;;;;;;26.60;13.77;;;0.40;70.20;;;-1.05;59.08;98065.66;5011970;28;20504;-75
2022/03/10 03:04:28;;;;;;;29.30;13.93;;;0.30;70.30;;;-1.08;59.67;98073.78;5012232;28;20416;-75
2022/03/10 03:06:54;;;;;;;24.00;12.80;;;0.30;70.30;;;-1.18;59.19;98070.53;5012379;28;20404;-75
2022/03/10 03:09:20;;;;;;;21.67;11.65;;;0.30;70.20;;;-1.27;59.64;98076.66;5012086;28;20440;-75
2022/03/10 03:11:46;;;;;;;23.27;12.57;;;0.20;70.00;;;-1.21;60.23;98073.47;5011930;28;20396;-75
2022/03/10 03:14:13;;;;;;;23.00;12.48;;;0.20;70.50;;;-1.26;59.78;98083.50;5012185;28;20494;-74
2022/03/10 03:16:40;;;;;;;24.10;13.85;;;0.10;70.70;;;-1.19;59.58;98087.88;5012135;28;20495;-74
2022/03/10 03:19:06;;;;;;;25.00;13.60;;;0.20;70.80;;;-1.21;60.59;98084.66;5012035;28;20437;-75
2022/03/10 03:21:32;;;;;;;23.60;12.85;;;0.10;71.50;;;-1.27;60.40;98079.28;5011637;28;20507;-75
2022/03/10 03:23:58;;;;;;;18.70;10.80;;;0.20;71.40;;;-1.42;60.15;98084.25;5011596;28;20428;-74
2022/03/10 03:26:23;;;;;;;18.70;11.18;;;0.10;71.10;;;-1.48;60.40;98084.09;5012181;28;20400;-81
2022/03/10 03:28:49;;;;;;;24.75;13.23;;;0.00;71.00;;;-1.33;61.08;98085.09;5010344;28;20409;-80
2022/03/10 03:31:16;;;;;;;25.27;13.63;;;0.00;72.20;;;-1.38;60.71;98088.19;5011498;28;20782;-82
2022/03/10 03:33:42;;;;;;;24.45;13.48;;;0.00;72.20;;;-1.44;60.48;98088.00;5011501;28;20404;-80
2022/03/10 03:36:08;;;;;;;21.58;12.00;;;0.00;71.90;;;-1.47;60.53;98094.31;5011320;28;20405;-81
2022/03/10 03:38:35;;;;;;;24.40;13.93;;;0.00;71.90;;;-1.39;60.62;98099.53;5011327;28;20909;-79
2022/03/10 03:41:02;;;;;;;23.65;12.93;;;0.00;72.30;;;-1.41;60.91;98093.69;5010964;28;20945;-78
2022/03/10 03:43:28;;;;;;;25.15;13.27;;;-0.10;72.60;;;-1.51;61.02;98100.00;5011070;28;20813;-80
2022/03/10 03:45:56;;;;;;;22.20;12.73;;;-0.10;72.70;;;-1.45;61.15;98096.75;5011165;28;20744;-78
2022/03/10 03:48:24;;;;;;;21.63;11.80;;;-0.10;72.50;;;-1.42;60.78;98101.63;5010942;28;20408;-78
2022/03/10 03:50:50;;;;;;;23.70;12.10;;;0.00;72.60;;;-1.41;60.95;98101.47;4992894;28;20936;-81
2022/03/10 03:53:16;;;;;;;21.85;11.60;;;-0.10;72.50;;;-1.39;60.94;98099.53;5010990;28;20914;-81
2022/03/10 03:55:42;;;;;;;22.25;12.13;;;0.00;72.50;;;-1.35;60.90;98102.63;5010972;28;20445;-78
2022/03/10 03:58:08;;;;;;;22.63;11.30;;;0.00;72.50;;;-1.46;61.18;98098.53;5011038;28;20432;-78
2022/03/10 04:00:36;;;;;;;24.03;11.73;;;0.00;72.40;;;-1.37;61.15;98099.38;5010433;28;20495;-78
2022/03/10 04:03:07;;;;;;;19.98;11.43;;;-0.10;72.60;;;-1.43;61.24;98107.81;5010742;28;20428;-82
2022/03/10 04:05:34;;;;;;;22.85;11.68;;;0.00;72.90;;;-1.45;61.91;98102.78;5010499;28;20898;-81
2022/03/10 04:08:00;;;;;;;20.00;10.57;;;-0.10;73.30;;;-1.59;61.38;98108.56;5000091;28;20417;-82
2022/03/10 04:10:26;;;;;;;20.13;10.82;;;-0.20;72.90;;;-1.47;61.41;98107.31;5007047;28;20436;-82
2022/03/10 04:12:52;;;;;;;24.67;11.38;;;-0.10;73.00;;;-1.56;61.63;98103.84;5007376;28;20498;-82
2022/03/10 04:15:18;;;;;;;20.67;11.52;;;-0.10;72.90;;;-1.60;61.21;98106.94;5011394;28;20734;-81
2022/03/10 04:17:44;;;;;;;18.25;10.40;;;-0.20;72.80;;;-1.61;61.29;98106.13;5008077;28;20445;-78
2022/03/10 04:20:13;;;;;;;20.45;11.55;;;-0.20;72.90;;;-1.59;61.71;98111.97;5009225;28;20406;-79
2022/03/10 04:22:41;;;;;;;23.00;12.30;;;-0.20;72.90;;;-1.61;61.47;98113.91;4993745;28;20454;-78
2022/03/10 04:25:08;;;;;;;24.33;13.80;;;-0.20;73.10;;;-1.60;61.94;98123.31;4989052;28;20436;-78
2022/03/10 04:27:35;;;;;;;24.45;12.82;;;-0.20;73.40;;;-1.66;61.74;98129.16;5002223;28;20403;-83
2022/03/10 04:30:01;;;;;;;23.05;12.45;;;-0.30;73.30;;;-1.70;62.07;98120.03;5010224;28;20405;-81
2022/03/10 04:32:26;;;;;;;24.58;13.25;;;-0.30;73.40;;;-1.70;62.08;98120.03;5010712;28;20455;-80
2022/03/10 04:34:52;;;;;;;27.15;13.75;;;-0.30;73.70;;;-1.67;61.83;98119.72;5007650;28;20455;-80
2022/03/10 04:37:18;;;;;;;24.90;13.02;;;-0.30;73.80;;;-1.70;62.02;98114.84;5004883;28;20507;-80
2022/03/10 04:39:45;;;;;;;24.93;13.63;;;-0.30;73.60;;;-1.66;62.09;98120.53;4992746;28;20583;-81
2022/03/10 04:42:12;;;;;;;23.55;12.93;;;-0.30;73.60;;;-1.62;61.88;98125.25;5005615;28;20770;-83
2022/03/10 04:44:38;;;;;;;25.13;13.18;;;-0.30;73.50;;;-1.61;61.64;98113.91;5005764;28;20925;-80
2022/03/10 04:47:05;;;;;;;24.33;13.05;;;-0.30;73.60;;;-1.61;61.90;98116.50;5009473;28;20409;-75
2022/03/10 04:49:30;;;;;;;25.23;13.35;;;-0.30;73.70;;;-1.61;61.36;98115.69;5010476;28;20500;-75
2022/03/10 04:51:57;;;;;;;28.23;14.70;;;-0.20;73.30;;;-1.57;61.36;98117.00;5010205;28;20835;-75
2022/03/10 04:54:23;;;;;;;25.65;13.77;;;-0.20;73.20;;;-1.65;61.78;98106.56;5010679;28;20759;-76
2022/03/10 04:56:52;;;;;;;28.65;15.48;;;-0.30;73.50;;;-1.61;61.84;98105.31;5010424;28;20438;-76
2022/03/10 04:59:18;;;;;;;29.42;15.15;;;-0.30;73.70;;;-1.56;61.34;98105.66;5004661;28;20460;-75
2022/03/10 05:01:43;;;;;;;26.42;14.10;;;-0.20;73.30;;;-1.62;61.30;98095.88;5004388;28;20413;-75
2022/03/10 05:04:09;;;;;;;29.83;14.83;;;-0.20;73.20;;;-1.60;60.95;98099.97;5006373;28;20492;-75
2022/03/10 05:06:35;;;;;;;28.90;14.90;;;-0.20;72.90;;;-1.54;61.18;98103.72;5007273;28;20948;-75
2022/03/10 05:09:01;;;;;;;30.27;15.63;;;-0.20;73.10;;;-1.62;61.27;98104.50;5008959;28;20412;-75
2022/03/10 05:11:27;;;;;;;27.38;14.30;;;-0.20;73.10;;;-1.64;61.72;98103.81;5003700;28;20480;-75
2022/03/10 05:13:54;;;;;;;30.27;16.10;;;-0.30;73.10;;;-1.67;62.22;98100.75;4995325;28;20426;-81
2022/03/10 05:16:20;;;;;;;29.05;14.70;;;-0.40;74.10;;;-1.70;62.11;98096.66;5004724;28;20818;-78
2022/03/10 05:18:46;;;;;;;25.48;14.27;;;-0.40;74.00;;;-1.71;61.83;98095.03;4998875;28;20436;-76
2022/03/10 05:21:12;;;;;;;29.43;14.97;;;-0.30;74.00;;;-1.75;61.70;98083.38;4999576;28;20470;-76
2022/03/10 05:23:38;;;;;;;28.92;15.23;;;-0.40;74.00;;;-1.75;61.64;98079.94;5009764;28;20416;-76
2022/03/10 05:26:04;;;;;;;28.40;15.60;;;-0.40;73.80;;;-1.75;62.17;98075.56;5017647;22;20497;-76
2022/03/10 05:28:30;;;;;;;28.13;14.77;;;-0.40;73.80;;;-1.76;61.86;98078.31;5006537;28;20438;-75
2022/03/10 05:30:58;;;;;;;29.05;14.20;;;-0.30;73.60;;;-1.81;61.83;98072.78;5010637;28;20878;-76
2022/03/10 05:33:24;;;;;;;29.03;14.93;;;-0.40;73.60;;;-1.80;62.19;98077.81;5008625;28;20491;-78
2022/03/10 05:35:49;;;;;;;30.33;15.10;;;-0.40;73.80;;;-1.82;61.98;98082.38;5011369;28;20429;-78
2022/03/10 05:38:16;;;;;;;30.95;16.63;;;-0.40;73.90;;;-1.81;62.20;98084.00;4992165;28;20429;-76
2022/03/10 05:40:42;;;;;;;29.17;15.45;;;-0.50;74.30;;;-1.84;62.56;98088.66;4997660;28;20453;-77
2022/03/10 05:43:07;;;;;;;31.83;15.80;;;-0.50;74.40;;;-1.85;62.44;98090.44;4993819;28;20415;-76
2022/03/10 05:45:33;;;;;;;29.30;15.38;;;-0.50;74.80;;;-1.91;62.48;98091.06;4999046;28;20834;-76
2022/03/10 05:48:01;;;;;;;26.40;14.27;;;-0.50;74.70;;;-1.89;62.96;98094.34;4994232;28;20422;-77
2022/03/10 05:50:27;;;;;;;29.75;15.60;;;-0.50;74.70;;;-1.91;63.01;98098.84;4994690;28;20410;-77
2022/03/10 05:52:54;;;;;;;28.85;15.00;;;-0.50;75.00;;;-1.91;62.89;98093.66;4993048;28;20414;-77
2022/03/10 05:55:23;;;;;;;30.10;15.15;;;-0.50;75.10;;;-1.85;63.11;98095.63;4993805;28;20398;-76
2022/03/10 05:57:49;;;;;;;27.85;14.35;;;-0.50;75.40;;;-1.81;63.19;98096.97;4994095;28;20922;-76
2022/03/10 06:00:16;;;;;;;27.40;14.48;;;-0.50;75.30;;;-1.78;62.81;98098.41;4993393;28;20465;-76
2022/03/10 06:02:43;;;;;;;29.90;14.90;;;-0.40;75.20;;;-1.76;63.03;98099.09;4993735;28;20490;-76
2022/03/10 06:05:10;;;;;;;29.65;15.32;;;-0.40;75.20;;;-1.79;63.14;98100.19;4992362;28;20422;-76
2022/03/10 06:07:36;;;;;;;28.53;14.50;;;-0.40;75.40;;;-1.74;62.85;98108.34;4991860;28;20414;-76
2022/03/10 06:10:04;;;;;;;29.63;15.68;;;-0.40;75.30;;;-1.71;62.79;98105.44;4989834;28;20418;-76
2022/03/10 06:12:30;;;;;;;27.00;13.77;;;-0.40;75.30;;;-1.70;62.81;98109.66;4993554;28;20567;-77
2022/03/10 06:14:57;;;;;;;35.67;15.25;;;-0.30;75.10;;;-1.65;62.87;98106.56;4992003;28;20818;-76
2022/03/10 06:17:23;;;;;;;23.25;13.20;;;-0.30;75.20;;;-1.67;63.10;98111.94;4992971;28;20497;-76
2022/03/10 06:19:49;;;;;;;26.63;14.35;;;-0.30;75.20;;;-1.64;63.13;98110.81;4992811;28;20457;-76
2022/03/10 06:22:18;;;;;;;29.08;14.55;;;-0.30;75.20;;;-1.59;62.57;98109.38;4992597;28;20816;-76
2022/03/10 06:24:45;;;;;;;26.60;13.93;;;-0.20;75.20;;;-1.59;62.45;98105.97;4992676;28;20923;-76
2022/03/10 06:27:11;;;;;;;30.65;15.77;;;-0.20;75.10;;;-1.54;62.91;98101.13;4993019;28;20400;-76
2022/03/10 06:29:37;;;;;;;28.73;14.95;;;-0.20;74.90;;;-1.48;62.90;98103.06;4993235;28;20460;-75
2022/03/10 06:32:04;;;;;;;27.98;14.27;;;-0.20;74.90;;;-1.47;62.39;98106.50;4992275;28;20400;-76
2022/03/10 06:34:30;;;;;;;28.65;15.15;;;-0.20;74.80;;;-1.45;62.43;98104.56;4987313;28;20420;-76
2022/03/10 06:36:57;;;;;;;26.60;13.57;;;-0.10;74.90;;;-1.49;62.75;98106.63;4992967;28;20444;-76
2022/03/10 06:39:24;;;;;;;31.77;14.80;;;-0.10;74.80;;;-1.43;62.70;98110.41;4992754;28;20506;-76
2022/03/10 06:41:50;;;;;;;29.75;15.88;;;-0.10;75.00;;;-1.35;62.09;98111.22;4992296;28;20407;-76
2022/03/10 06:44:16;;;;;;;34.88;16.80;;;0.00;74.60;;;-1.30;62.17;98115.97;4992646;28;20765;-76
2022/03/10 06:46:41;;;;;;;30.83;15.50;;;0.00;74.10;;;-1.25;61.83;98116.28;4992749;28;20456;-76
2022/03/10 06:49:07;;;;;;;35.13;17.27;;;0.10;74.00;;;-1.17;61.49;98111.13;4992373;28;20819;-76
2022/03/10 06:51:33;;;;;;;34.25;16.75;;;0.10;73.60;;;-1.09;61.21;98112.91;4992424;28;20402;-79
2022/03/10 06:53:59;;;;;;;36.47;16.80;;;0.20;73.60;;;-1.05;61.07;98122.81;4992978;28;20453;-78
2022/03/10 06:56:27;;;;;;;34.70;16.50;;;0.30;73.30;;;-0.95;60.57;98117.50;4993017;28;20423;-79
2022/03/10 06:58:52;;;;;;;32.20;15.83;;;0.30;72.80;;;-0.89;60.55;98117.66;4993028;28;20493;-77
2022/03/10 07:01:20;;;;;;;29.13;15.45;;;0.40;72.80;;;-0.80;60.51;98128.88;4992715;28;20513;-77
2022/03/10 07:03:45;;;;;;;28.52;14.50;;;0.50;72.70;;;-0.70;60.63;98126.13;4991490;28;20453;-76
2022/03/10 07:06:11;;;;;;;29.30;15.88;;;0.60;72.40;;;-0.59;60.20;98133.59;4988271;28;20434;-77
2022/03/10 07:08:37;;;;;;;29.73;15.55;;;0.70;72.00;;;-0.49;60.02;98121.25;4992620;28;20402;-78
2022/03/10 07:11:03;;;;;;;30.53;16.30;;;0.80;71.90;;;-0.38;59.69;98127.94;5008510;28;21141;-75
2022/03/10 07:13:34;;;;;;;30.35;16.58;;;0.90;71.50;;;-0.30;59.54;98126.09;4999135;28;20405;-75
2022/03/10 07:16:00;;;;;;;26.95;14.35;;;1.00;71.30;;;-0.23;59.20;98124.50;5001171;28;20402;-74
2022/03/10 07:18:26;;;;;;;27.60;14.70;;;1.00;71.00;;;-0.15;58.89;98129.66;4989610;28;20956;-75
2022/03/10 07:20:52;;;;;;;24.42;13.57;;;1.10;70.90;;;-0.07;58.90;98134.03;4997467;28;20414;-74
2022/03/10 07:23:18;;;;;;;28.90;13.57;;;1.20;70.70;;;0.00;59.12;98140.25;4991254;28;20768;-73
2022/03/10 07:25:44;;;;;;;24.17;13.33;;;1.20;70.60;;;0.08;58.68;98149.78;4989017;28;20534;-74
2022/03/10 07:28:10;;;;;;;25.75;14.85;;;1.30;70.40;;;0.16;58.53;98141.97;4983685;28;20420;-74
2022/03/10 07:30:37;;;;;;;25.13;12.77;;;1.40;70.40;;;0.26;58.25;98146.03;4990591;28;20417;-74
2022/03/10 07:33:03;;;;;;;23.57;13.40;;;1.50;70.20;;;0.36;57.90;98151.03;4992025;28;20413;-76
2022/03/10 07:35:29;;;;;;;21.23;11.70;;;1.60;69.90;;;0.46;58.09;98150.81;4992751;28;20406;-76
2022/03/10 07:37:58;;;;;;;18.98;10.82;;;1.70;69.70;;;0.57;57.80;98148.69;4991808;28;20953;-79
2022/03/10 07:40:24;;;;;;;21.83;11.27;;;1.80;69.50;;;0.66;57.87;98154.69;4991896;28;20461;-75
2022/03/10 07:42:50;;;;;;;21.83;12.50;;;1.80;69.20;;;0.75;57.72;98157.06;4991849;28;20407;-77
2022/03/10 07:45:15;;;;;;;24.17;12.80;;;1.90;69.10;;;0.85;57.79;98156.03;4991064;28;20481;-76
2022/03/10 07:47:43;;;;;;;24.33;12.70;;;2.00;68.90;;;0.96;57.12;98156.50;4989972;28;20891;-76
2022/03/10 07:50:10;;;;;;;24.33;13.27;;;2.10;68.70;;;1.06;57.27;98154.44;4991096;28;20407;-75
2022/03/10 07:52:36;;;;;;;27.40;15.18;;;2.20;68.70;;;1.19;57.40;98160.91;4991557;28;20425;-74
2022/03/10 07:55:03;;;;;;;27.40;15.27;;;2.30;68.50;;;1.31;56.79;98154.31;4991563;28;20406;-75
2022/03/10 07:57:29;;;;;;;29.10;15.57;;;2.40;68.50;;;1.44;56.74;98157.16;4992916;28;20453;-77
2022/03/10 07:59:55;;;;;;;30.85;15.20;;;2.60;68.40;;;1.59;56.62;98157.19;4990475;28;20415;-75
2022/03/10 08:02:21;;;;;;;26.55;14.75;;;2.70;68.00;;;1.72;56.29;98145.19;4992976;28;20908;-74
2022/03/10 08:04:48;;;;;;;28.67;14.52;;;2.80;67.60;;;1.83;56.03;98152.59;4996230;28;20440;-75
2022/03/10 08:07:14;;;;;;;27.50;14.80;;;2.90;67.40;;;1.92;56.15;98148.13;4995595;28;20409;-76
2022/03/10 08:09:40;;;;;;;31.87;15.63;;;3.00;67.50;;;2.00;56.17;98157.66;4990442;28;20501;-75
2022/03/10 08:12:08;;;;;;;30.00;15.07;;;3.10;67.30;;;2.07;56.36;98148.94;4995559;28;20417;-76
2022/03/10 08:14:34;;;;;;;27.60;15.40;;;3.20;67.30;;;2.16;55.87;98154.91;4995747;28;20409;-77
2022/03/10 08:17:00;;;;;;;24.55;14.43;;;3.30;67.20;;;2.23;56.05;98154.00;4990775;28;20403;-77
2022/03/10 08:19:25;;;;;;;25.83;14.50;;;3.40;67.00;;;2.30;55.57;98152.31;4990971;28;20414;-76
2022/03/10 08:21:53;;;;;;;23.13;13.30;;;3.40;66.80;;;2.40;55.67;98157.28;4973161;28;20426;-76
2022/03/10 08:24:19;;;;;;;25.65;13.85;;;3.50;66.50;;;2.49;55.11;98155.34;4990664;28;20433;-77
2022/03/10 08:26:45;;;;;;;24.23;13.63;;;3.60;66.20;;;2.60;54.93;98147.88;4991101;28;20410;-76
2022/03/10 08:29:11;;;;;;;26.23;14.05;;;3.60;65.60;;;2.69;54.59;98145.97;4988263;28;20414;-76
2022/03/10 08:31:37;;;;;;;27.50;13.27;;;3.70;65.20;;;2.81;54.17;98149.75;4990529;28;20469;-75
2022/03/10 08:34:03;;;;;;;22.10;12.98;;;3.90;64.90;;;2.91;53.83;98147.66;4990824;28;20403;-74
2022/03/10 08:36:30;;;;;;;23.42;13.40;;;3.90;64.40;;;3.00;53.79;98146.56;4973052;28;20429;-76
2022/03/10 08:38:57;;;;;;;20.33;12.00;;;4.00;64.20;;;3.11;53.32;98137.41;4986550;28;20427;-76
2022/03/10 08:41:23;;;;;;;25.50;13.40;;;4.10;64.00;;;3.20;53.31;98140.72;4988440;28;20413;-76
2022/03/10 08:43:49;;;;;;;25.33;12.88;;;4.20;63.70;;;3.29;53.08;98137.00;4989631;28;20426;-75
2022/03/10 08:46:15;;;;;;;24.33;14.02;;;4.30;63.60;;;3.35;52.94;98137.06;4975319;28;20419;-77
2022/03/10 08:48:44;;;;;;;23.73;12.93;;;4.40;63.30;;;3.47;52.85;98134.75;4987789;28;20782;-76
2022/03/10 08:51:10;;;;;;;19.42;11.32;;;4.50;63.20;;;3.57;52.63;98123.97;4989266;28;20764;-73
2022/03/10 08:53:36;;;;;;;20.73;12.40;;;4.50;62.70;;;3.66;52.21;98122.84;4990651;28;20473;-77
2022/03/10 08:56:06;;;;;;;21.50;12.32;;;4.60;62.30;;;3.76;51.95;98120.72;4990639;28;20811;-78
2022/03/10 08:58:32;;;;;;;20.67;12.43;;;4.70;62.10;;;3.86;51.54;98126.41;4990710;28;20409;-79
2022/03/10 09:00:58;;;;;;;21.08;12.30;;;4.80;61.60;;;3.99;50.73;98118.66;4994447;28;20771;-75
2022/03/10 09:03:25;;;;;;;18.77;11.13;;;5.00;60.10;;;4.08;50.44;98117.50;4994410;28;20422;-76
2022/03/10 09:05:51;;;;;;;19.92;10.80;;;5.10;60.00;;;4.17;50.33;98126.84;4994480;28;20412;-75
2022/03/10 09:08:17;;;;;;;21.38;11.95;;;5.10;60.00;;;4.24;50.18;98119.03;4994370;28;20780;-76
2022/03/10 09:10:43;;;;;;;16.35;10.48;;;5.20;59.80;;;4.31;50.27;98114.63;4992579;28;20414;-75
2022/03/10 09:13:10;;;;;;;18.90;12.27;;;5.30;59.90;;;4.39;50.22;98108.41;4993995;28;20428;-75
2022/03/10 09:15:36;;;;;;;17.75;10.63;;;5.30;59.90;;;4.48;50.18;98115.94;4993938;28;20410;-74
2022/03/10 09:18:02;;;;;;;17.17;10.45;;;5.40;59.70;;;4.57;49.81;98111.34;4977009;28;20896;-74
2022/03/10 09:20:28;;;;;;;18.10;10.45;;;5.50;59.50;;;4.63;49.62;98107.94;4993945;28;20402;-74
2022/03/10 09:22:54;;;;;;;20.05;11.25;;;5.60;59.20;;;4.68;49.71;98111.59;4994238;28;20402;-74
2022/03/10 09:25:20;;;;;;;18.80;10.98;;;5.60;59.20;;;4.76;49.60;98105.34;4994347;28;20827;-74
2022/03/10 09:27:48;;;;;;;20.67;11.00;;;5.70;59.00;;;4.87;48.84;98098.75;4994489;28;20874;-76
2022/03/10 09:30:15;;;;;;;20.80;11.23;;;5.80;58.50;;;4.96;48.90;98093.09;4993912;28;20414;-77
2022/03/10 09:32:44;;;;;;;18.58;10.80;;;5.90;58.40;;;5.06;48.91;98092.72;4994344;28;20477;-76
2022/03/10 09:35:13;;;;;;;15.95;10.52;;;6.00;58.30;;;5.16;48.58;98093.16;4994015;28;20506;-75
2022/03/10 09:37:39;;;;;;;17.73;10.32;;;6.10;58.00;;;5.27;48.33;98094.38;4990789;28;20451;-78
2022/03/10 09:40:08;;;;;;;18.08;11.18;;;6.20;57.70;;;5.36;48.39;98095.81;4993475;28;20888;-76
2022/03/10 09:42:35;;;;;;;18.38;10.93;;;6.20;57.70;;;5.41;47.95;98094.19;4993724;28;20409;-75
2022/03/10 09:45:04;;;;;;;21.05;11.75;;;6.30;57.30;;;5.51;47.60;98095.63;4993552;28;20422;-74
2022/03/10 09:47:32;;;;;;;16.15;9.95;;;6.40;56.80;;;5.61;47.35;98099.47;4993946;28;20929;-77
2022/03/10 09:50:01;;;;;;;18.17;10.30;;;6.50;56.50;;;5.72;47.33;98100.69;4991168;28;20476;-75
2022/03/10 09:52:28;;;;;;;17.75;10.20;;;6.60;56.50;;;5.78;46.62;98098.06;4993171;28;20448;-75
2022/03/10 09:54:54;;;;;;;16.48;9.40;;;6.70;55.90;;;5.89;46.18;98091.41;4991826;28;20402;-77
2022/03/10 09:57:22;;;;;;;14.07;9.27;;;6.70;55.50;;;5.99;46.07;98094.44;4993352;28;20915;-76
2022/03/10 09:59:49;;;;;;;16.00;9.47;;;6.80;55.30;;;6.09;46.02;98094.03;4993228;28;20443;-75
2022/03/10 10:02:15;;;;;;;18.13;10.63;;;6.90;55.20;;;6.19;44.90;98091.78;4992468;28;20402;-75
2022/03/10 10:04:43;;;;;;;13.35;8.73;;;7.10;54.10;;;6.46;44.95;98088.06;4992777;28;20468;-75
2022/03/10 10:07:10;;;;;;;16.23;8.50;;;7.20;54.00;;;6.98;44.46;98089.69;4993843;28;20403;-75
2022/03/10 10:09:42;;;;;;;11.65;7.20;;;7.60;53.90;;;7.85;42.49;98088.03;4993313;28;20407;-76
2022/03/10 10:12:10;;;;;;;13.38;7.45;;;8.60;52.50;;;9.07;40.67;98078.41;4993499;28;20411;-74
2022/03/10 10:14:38;;;;;;;14.75;8.07;;;9.80;50.10;;;10.50;38.51;98080.75;4993580;28;20399;-74